Time;durP1;ratioP1;P1;durP2;ratioP2;P2;SDS_P1;SDS_P2;PMS_P1;PMS_P2;Temp;Humidity;BMP_temperature;BMP_pressure;BME280_temperature;BME280_humidity;BME280_pressure;Samples;Min_cycle;Max_cycle;Signal;HPM_P1;HPM_P2
2021/08/31 00:00:44;;;;;;;15.23;9.43;;;15.40;99.90;;;;;;5096640;28;20468;-69
2021/08/31 00:03:10;;;;;;;19.75;9.68;;;15.30;99.90;;;;;;5095603;28;20020;-69
2021/08/31 00:05:35;;;;;;;15.32;9.75;;;15.30;99.90;;;;;;5097052;28;20099;-69
2021/08/31 00:08:01;;;;;;;16.85;9.65;;;15.40;99.90;;;;;;5095644;28;20024;-69
2021/08/31 00:10:27;;;;;;;22.02;10.57;;;15.00;99.90;;;;;;5096900;28;20070;-69
2021/08/31 00:12:53;;;;;;;17.40;9.02;;;15.30;99.90;;;;;;5096799;28;20024;-69
2021/08/31 00:15:19;;;;;;;13.65;9.02;;;15.20;99.90;;;;;;5096586;28;20039;-70
2021/08/31 00:17:45;;;;;;;17.73;9.75;;;15.20;99.90;;;;;;5096840;28;20016;-69
2021/08/31 00:20:11;;;;;;;13.25;8.75;;;15.20;99.90;;;;;;5095443;28;20564;-69
2021/08/31 00:22:37;;;;;;;17.38;10.15;;;15.30;99.90;;;;;;5096593;28;20016;-69
2021/08/31 00:25:07;;;;;;;17.58;10.25;;;15.30;99.90;;;;;;5096815;28;20078;-70
2021/08/31 00:27:34;;;;;;;17.92;10.57;;;15.20;99.90;;;;;;5095169;28;20433;-70
2021/08/31 00:29:59;;;;;;;22.48;11.32;;;14.90;99.90;;;;;;5096612;28;20046;-69
2021/08/31 00:32:25;;;;;;;17.10;10.07;;;15.00;99.90;;;;;;5096625;28;20028;-69
2021/08/31 00:34:51;;;;;;;18.58;11.50;;;15.20;99.90;;;;;;5096828;28;20036;-70
2021/08/31 00:37:17;;;;;;;21.30;11.38;;;15.00;99.90;;;;;;5100910;28;20099;-69
2021/08/31 00:39:43;;;;;;;21.52;10.27;;;14.90;99.90;;;;;;5100825;28;20035;-69
2021/08/31 00:42:09;;;;;;;16.40;11.85;;;14.90;99.90;;;;;;5100762;28;20404;-69
2021/08/31 00:44:35;;;;;;;18.15;10.75;;;14.90;99.90;;;;;;5100838;28;20025;-70
2021/08/31 00:47:05;;;;;;;16.38;10.60;;;15.00;99.90;;;;;;5100552;28;20056;-69
2021/08/31 00:49:31;;;;;;;17.92;10.02;;;15.10;99.90;;;;;;5099413;28;20027;-69
2021/08/31 00:51:58;;;;;;;20.65;12.38;;;15.10;99.90;;;;;;5100660;28;20054;-70
2021/08/31 00:54:24;;;;;;;16.05;9.73;;;14.90;99.90;;;;;;5100761;28;20054;-69
2021/08/31 00:56:52;;;;;;;15.73;11.55;;;15.20;99.90;;;;;;5100543;28;20027;-69
2021/08/31 00:59:19;;;;;;;16.05;9.75;;;14.80;99.90;;;;;;5098971;28;20059;-69
2021/08/31 01:01:46;;;;;;;16.92;9.65;;;15.10;99.90;;;;;;5099909;28;20023;-69
2021/08/31 01:04:12;;;;;;;16.10;10.68;;;15.30;99.90;;;;;;5100450;28;20028;-69
2021/08/31 01:06:39;;;;;;;18.23;10.73;;;15.20;99.90;;;;;;5100200;28;20020;-70
2021/08/31 01:09:06;;;;;;;17.95;12.00;;;15.30;99.90;;;;;;5099070;28;20024;-70
2021/08/31 01:11:34;;;;;;;17.20;11.35;;;15.50;99.90;;;;;;5100083;28;20047;-69
2021/08/31 01:14:00;;;;;;;17.65;11.50;;;15.30;99.90;;;;;;5098923;28;20051;-69
2021/08/31 01:16:26;;;;;;;17.35;11.25;;;15.60;99.90;;;;;;5098551;28;20027;-69
2021/08/31 01:18:53;;;;;;;17.08;10.90;;;15.50;99.90;;;;;;5100171;28;20471;-69
2021/08/31 01:21:19;;;;;;;19.52;11.35;;;15.30;99.90;;;;;;5099843;28;20036;-69
2021/08/31 01:23:48;;;;;;;17.92;11.05;;;15.60;99.90;;;;;;5098492;28;20024;-70
2021/08/31 01:26:15;;;;;;;26.63;12.77;;;15.30;99.90;;;;;;5099853;28;20605;-69
2021/08/31 01:28:41;;;;;;;21.60;12.38;;;15.30;99.90;;;;;;5100170;28;20024;-69
2021/08/31 01:31:06;;;;;;;18.48;12.50;;;15.30;99.90;;;;;;5098024;28;20503;-69
2021/08/31 01:33:34;;;;;;;25.00;13.55;;;15.30;99.90;;;;;;5098309;28;20120;-69
2021/08/31 01:36:18;;;;;;;23.48;12.90;;;15.40;99.90;;;;;;5099714;28;20023;-69
2021/08/31 01:38:46;;;;;;;21.05;12.60;;;15.30;99.90;;;;;;5099690;28;20459;-70
2021/08/31 01:41:11;;;;;;;20.05;12.07;;;15.30;99.90;;;;;;5099422;28;20082;-69
2021/08/31 01:43:37;;;;;;;22.00;12.18;;;15.20;99.90;;;;;;5099659;28;20059;-69
2021/08/31 01:46:03;;;;;;;25.23;13.73;;;15.60;99.90;;;;;;5098510;28;20091;-69
2021/08/31 01:48:29;;;;;;;27.55;12.93;;;15.30;99.90;;;;;;5099855;28;20099;-70
2021/08/31 01:50:55;;;;;;;23.40;11.48;;;15.30;99.90;;;;;;5099506;28;20099;-70
2021/08/31 01:53:21;;;;;;;17.45;10.98;;;15.40;99.90;;;;;;5097941;28;20024;-70
2021/08/31 01:55:47;;;;;;;15.95;11.23;;;15.30;99.90;;;;;;5099288;28;20024;-70
2021/08/31 01:58:13;;;;;;;24.00;11.43;;;15.30;99.90;;;;;;5099195;28;20048;-70
2021/08/31 02:00:38;;;;;;;20.90;12.73;;;15.30;99.90;;;;;;5098781;28;20415;-70
2021/08/31 02:03:04;;;;;;;19.15;12.18;;;15.30;99.90;;;;;;5097926;28;20103;-69
2021/08/31 02:05:30;;;;;;;20.58;11.38;;;15.30;99.90;;;;;;5097752;28;20492;-70
2021/08/31 02:07:56;;;;;;;20.67;12.05;;;15.30;99.90;;;;;;5099454;28;20129;-70
2021/08/31 02:10:22;;;;;;;16.48;10.27;;;15.20;99.90;;;;;;5098969;28;20028;-69
2021/08/31 02:12:48;;;;;;;18.30;12.20;;;15.10;99.90;;;;;;5099082;28;20351;-70
2021/08/31 02:15:14;;;;;;;17.10;12.23;;;15.00;99.90;;;;;;5098581;28;20028;-69
2021/08/31 02:17:40;;;;;;;16.33;11.55;;;15.20;99.90;;;;;;5098969;28;20036;-70
2021/08/31 02:20:07;;;;;;;21.92;12.57;;;15.00;99.90;;;;;;5098823;28;20377;-70
2021/08/31 02:22:33;;;;;;;19.00;11.80;;;15.20;99.90;;;;;;5097473;28;20023;-69
2021/08/31 02:24:59;;;;;;;27.67;13.32;;;15.00;99.90;;;;;;5098943;28;20073;-69
2021/08/31 02:27:25;;;;;;;22.80;12.98;;;14.90;99.90;;;;;;5098983;28;20027;-69
2021/08/31 02:29:51;;;;;;;22.25;12.75;;;14.80;99.90;;;;;;5097095;28;20160;-70
2021/08/31 02:32:16;;;;;;;23.85;13.20;;;15.00;99.90;;;;;;5098656;28;20111;-69
2021/08/31 02:34:42;;;;;;;20.73;11.90;;;15.00;99.90;;;;;;5098428;28;20093;-69
2021/08/31 02:37:08;;;;;;;24.08;13.35;;;15.20;99.90;;;;;;5098664;28;20553;-69
2021/08/31 02:39:34;;;;;;;17.92;10.45;;;15.20;99.90;;;;;;5098391;28;20024;-70
2021/08/31 02:42:00;;;;;;;14.20;10.68;;;15.00;99.90;;;;;;5098442;28;20031;-69
2021/08/31 02:44:26;;;;;;;18.23;11.55;;;15.00;99.90;;;;;;5098607;28;20059;-70
2021/08/31 02:46:51;;;;;;;13.82;10.50;;;15.10;99.90;;;;;;5098098;28;20020;-70
2021/08/31 02:49:17;;;;;;;19.65;12.55;;;14.90;99.90;;;;;;5098376;28;20020;-70
2021/08/31 02:51:43;;;;;;;23.20;13.18;;;15.20;99.90;;;;;;5098280;28;20480;-70
2021/08/31 02:54:09;;;;;;;19.13;11.82;;;15.10;99.90;;;;;;5098029;28;20051;-69
2021/08/31 02:56:35;;;;;;;19.73;10.90;;;15.10;99.90;;;;;;5098280;28;20081;-69
2021/08/31 02:59:00;;;;;;;19.80;12.88;;;15.20;99.90;;;;;;5097009;28;20048;-69
2021/08/31 03:01:33;;;;;;;17.10;12.63;;;15.20;99.90;;;;;;5097814;28;20099;-69
2021/08/31 03:04:01;;;;;;;23.42;14.27;;;15.10;99.90;;;;;;5098157;28;20384;-69
2021/08/31 03:06:28;;;;;;;20.20;13.07;;;15.00;99.90;;;;;;5098172;28;20020;-69
2021/08/31 03:08:54;;;;;;;17.38;12.20;;;15.50;99.90;;;;;;5096788;28;20024;-70
2021/08/31 03:11:21;;;;;;;22.85;14.27;;;15.50;99.90;;;;;;5097760;28;20024;-69
2021/08/31 03:13:48;;;;;;;17.55;11.68;;;15.40;99.90;;;;;;5098065;28;20073;-69
2021/08/31 03:16:14;;;;;;;20.70;10.40;;;15.40;99.90;;;;;;5097609;28;20031;-70
2021/08/31 03:18:40;;;;;;;20.05;11.80;;;15.20;99.90;;;;;;5097916;28;20546;-69
2021/08/31 03:21:06;;;;;;;20.85;11.90;;;15.20;99.90;;;;;;5097476;28;20051;-70
2021/08/31 03:23:32;;;;;;;15.77;11.30;;;15.20;99.90;;;;;;5097609;28;20581;-70
2021/08/31 03:25:58;;;;;;;19.95;11.77;;;15.20;99.90;;;;;;5097756;28;20019;-70
2021/08/31 03:28:24;;;;;;;20.98;11.90;;;15.00;99.90;;;;;;5097860;28;20028;-70
2021/08/31 03:30:50;;;;;;;16.23;10.43;;;15.10;99.90;;;;;;5097330;28;20025;-69
2021/08/31 03:33:16;;;;;;;15.90;10.02;;;15.10;99.90;;;;;;5097326;28;20059;-70
2021/08/31 03:35:42;;;;;;;12.70;10.25;;;15.10;99.90;;;;;;5097360;28;20522;-70
2021/08/31 03:38:08;;;;;;;13.32;10.50;;;14.80;99.90;;;;;;5096038;28;20036;-69
2021/08/31 03:40:34;;;;;;;19.08;10.45;;;14.90;99.90;;;;;;5095876;28;20024;-70
2021/08/31 03:43:00;;;;;;;16.92;11.75;;;15.00;99.90;;;;;;5097443;28;20021;-70
2021/08/31 03:45:26;;;;;;;24.90;12.25;;;14.80;99.90;;;;;;5095680;28;20034;-70
2021/08/31 03:47:52;;;;;;;20.38;12.02;;;14.70;99.90;;;;;;5095911;28;20553;-70
2021/08/31 03:50:18;;;;;;;18.15;12.48;;;15.00;99.90;;;;;;5097165;28;20036;-70
2021/08/31 03:52:43;;;;;;;15.80;11.35;;;15.00;99.90;;;;;;5097191;28;20031;-69
2021/08/31 03:55:10;;;;;;;15.95;10.88;;;14.50;99.90;;;;;;5097092;28;20028;-70
2021/08/31 03:57:36;;;;;;;19.55;11.52;;;15.00;99.90;;;;;;5097048;28;20482;-70
2021/08/31 04:00:03;;;;;;;18.30;11.90;;;14.80;99.90;;;;;;5095120;28;20164;-70
2021/08/31 04:02:29;;;;;;;19.75;11.80;;;14.70;99.90;;;;;;5097043;28;20047;-70
2021/08/31 04:04:55;;;;;;;13.40;10.23;;;14.60;99.90;;;;;;5095704;28;20020;-70
2021/08/31 04:07:21;;;;;;;16.13;12.27;;;14.70;99.90;;;;;;5097060;28;20452;-70
2021/08/31 04:09:46;;;;;;;18.77;11.48;;;14.80;99.90;;;;;;5095170;28;20027;-70
2021/08/31 04:12:13;;;;;;;14.32;10.30;;;14.60;99.90;;;;;;5096913;28;20537;-70
2021/08/31 04:14:39;;;;;;;16.60;12.35;;;14.60;99.90;;;;;;5096567;28;20094;-70
2021/08/31 04:17:05;;;;;;;16.75;10.80;;;14.80;99.90;;;;;;5096919;28;20490;-70
2021/08/31 04:19:31;;;;;;;17.50;11.38;;;14.70;99.90;;;;;;5096871;28;20107;-69
2021/08/31 04:21:56;;;;;;;13.35;10.80;;;14.60;99.90;;;;;;5096851;28;20416;-70
2021/08/31 04:24:22;;;;;;;23.13;12.82;;;14.60;99.90;;;;;;5096630;28;20035;-70
2021/08/31 04:26:48;;;;;;;18.90;11.70;;;14.60;99.90;;;;;;5096766;28;20018;-70
2021/08/31 04:29:14;;;;;;;18.85;11.90;;;14.50;99.90;;;;;;5096706;28;20388;-69
2021/08/31 04:31:40;;;;;;;15.73;10.88;;;14.20;99.90;;;;;;5096312;28;20017;-69
2021/08/31 04:34:05;;;;;;;13.52;9.95;;;14.70;99.90;;;;;;5096591;28;20035;-70
2021/08/31 04:36:31;;;;;;;13.23;10.35;;;14.50;99.90;;;;;;5096700;28;20079;-70
2021/08/31 04:38:57;;;;;;;13.68;10.85;;;14.60;99.90;;;;;;5096691;28;20032;-70
2021/08/31 04:41:23;;;;;;;18.60;11.60;;;14.70;99.90;;;;;;5096667;28;20026;-70
2021/08/31 04:43:49;;;;;;;15.10;10.27;;;14.60;99.90;;;;;;5096472;28;20381;-70
2021/08/31 04:46:15;;;;;;;18.75;9.30;;;14.60;99.90;;;;;;5096285;28;20020;-70
2021/08/31 04:48:41;;;;;;;13.55;9.32;;;14.80;99.90;;;;;;5096340;28;20060;-70
2021/08/31 04:51:06;;;;;;;14.70;9.90;;;14.90;99.90;;;;;;5096560;28;20027;-69
2021/08/31 04:53:32;;;;;;;12.68;9.50;;;14.70;99.90;;;;;;5096338;28;20036;-69
2021/08/31 04:55:58;;;;;;;17.95;10.18;;;14.60;99.90;;;;;;5096630;28;20032;-69
2021/08/31 04:58:24;;;;;;;14.27;9.40;;;14.80;99.90;;;;;;5096381;28;20064;-69
2021/08/31 05:00:50;;;;;;;15.30;9.98;;;14.60;99.90;;;;;;5096219;28;20023;-70
2021/08/31 05:03:16;;;;;;;14.57;10.00;;;15.20;99.90;;;;;;5096260;28;20078;-70
2021/08/31 05:05:42;;;;;;;14.20;10.13;;;15.00;99.90;;;;;;5096563;28;20400;-70
2021/08/31 05:08:09;;;;;;;13.60;10.65;;;14.90;99.90;;;;;;5096181;28;20095;-70
2021/08/31 05:10:35;;;;;;;19.55;11.45;;;14.70;99.90;;;;;;5095010;28;20039;-70
2021/08/31 05:13:01;;;;;;;13.13;10.63;;;14.90;99.90;;;;;;5096192;28;20426;-70
2021/08/31 05:15:28;;;;;;;15.38;10.60;;;15.30;99.90;;;;;;5096242;28;20024;-70
2021/08/31 05:17:54;;;;;;;19.63;10.25;;;15.10;99.90;;;;;;5096520;28;20021;-70
2021/08/31 05:20:20;;;;;;;12.70;9.43;;;14.90;99.90;;;;;;5096236;28;20115;-70
2021/08/31 05:22:47;;;;;;;15.15;8.98;;;15.00;99.90;;;;;;5099193;28;20023;-70
2021/08/31 05:25:12;;;;;;;14.52;9.88;;;15.00;99.90;;;;;;5099923;28;20034;-70
2021/08/31 05:27:38;;;;;;;13.95;10.20;;;15.10;99.90;;;;;;5099941;28;20012;-70
2021/08/31 05:30:04;;;;;;;15.27;9.50;;;15.00;99.90;;;;;;5099686;28;20361;-70
2021/08/31 05:32:30;;;;;;;12.32;9.50;;;15.40;99.90;;;;;;5099626;28;20016;-70
2021/08/31 05:34:56;;;;;;;10.13;8.25;;;15.30;99.90;;;;;;5100220;28;20468;-70
2021/08/31 05:37:22;;;;;;;11.43;9.38;;;15.30;99.90;;;;;;5099753;28;20021;-70
2021/08/31 05:39:48;;;;;;;15.30;9.80;;;15.50;99.90;;;;;;5099746;28;20032;-70
2021/08/31 05:42:13;;;;;;;11.25;8.25;;;15.50;99.90;;;;;;5099543;28;20412;-70
2021/08/31 05:44:41;;;;;;;11.27;8.95;;;15.40;99.90;;;;;;5099481;28;20107;-70
2021/08/31 05:47:08;;;;;;;15.50;9.48;;;15.10;99.90;;;;;;5099450;28;20024;-70
2021/08/31 05:49:34;;;;;;;14.23;7.70;;;15.60;99.90;;;;;;5099632;28;20547;-70
2021/08/31 05:52:00;;;;;;;12.45;8.73;;;15.40;99.90;;;;;;5099379;28;20042;-70
2021/08/31 05:54:27;;;;;;;11.90;7.90;;;15.60;99.90;;;;;;5099667;28;20024;-70
2021/08/31 05:56:53;;;;;;;17.85;8.77;;;15.50;99.90;;;;;;5097972;28;20024;-70
2021/08/31 05:59:19;;;;;;;11.65;7.85;;;15.50;99.90;;;;;;5099008;28;20062;-69
2021/08/31 06:01:46;;;;;;;12.07;8.60;;;15.70;99.90;;;;;;5099184;28;20020;-70
2021/08/31 06:04:13;;;;;;;10.43;7.72;;;15.90;99.90;;;;;;5099400;28;20392;-69
2021/08/31 06:06:39;;;;;;;12.10;7.72;;;15.60;99.90;;;;;;5099096;28;20027;-70
2021/08/31 06:09:06;;;;;;;9.02;7.75;;;15.80;99.90;;;;;;5099101;28;20099;-69
2021/08/31 06:11:37;;;;;;;13.20;8.32;;;15.90;99.90;;;;;;5098887;28;20020;-69
2021/08/31 06:14:03;;;;;;;9.45;7.57;;;16.00;99.90;;;;;;5099233;28;20069;-69
2021/08/31 06:16:29;;;;;;;12.30;7.03;;;15.80;99.90;;;;;;5098623;28;20032;-70
2021/08/31 06:18:55;;;;;;;12.30;7.10;;;16.10;99.90;;;;;;5097818;28;20035;-69
2021/08/31 06:21:21;;;;;;;8.85;7.38;;;16.10;99.90;;;;;;5098658;28;20028;-70
2021/08/31 06:23:47;;;;;;;8.85;7.32;;;16.10;99.90;;;;;;5098799;28;20491;-69
2021/08/31 06:26:13;;;;;;;10.38;7.28;;;16.10;99.90;;;;;;5098744;28;20020;-70
2021/08/31 06:28:38;;;;;;;11.18;7.32;;;16.20;99.90;;;;;;5098920;28;20100;-69
2021/08/31 06:31:04;;;;;;;11.88;7.72;;;16.50;99.90;;;;;;5098313;28;20040;-69
2021/08/31 06:33:30;;;;;;;8.73;6.22;;;16.60;99.90;;;;;;5098578;28;20024;-69
2021/08/31 06:35:56;;;;;;;10.38;7.85;;;16.60;99.90;;;;;;5098664;28;20388;-69
2021/08/31 06:38:22;;;;;;;10.23;6.93;;;16.70;99.90;;;;;;5098620;28;20069;-69
2021/08/31 06:40:47;;;;;;;9.93;7.20;;;17.00;99.90;;;;;;5097068;28;20061;-69
2021/08/31 06:43:13;;;;;;;7.80;6.40;;;17.10;99.90;;;;;;5098517;28;20016;-69
2021/08/31 06:45:39;;;;;;;8.02;6.40;;;17.30;99.90;;;;;;5098048;28;20047;-70
2021/08/31 06:48:06;;;;;;;8.63;6.95;;;17.50;99.90;;;;;;5097081;28;20035;-69
2021/08/31 06:50:32;;;;;;;9.32;6.05;;;17.50;99.90;;;;;;5098270;28;20028;-70
2021/08/31 06:52:58;;;;;;;6.30;5.38;;;17.50;99.90;;;;;;5098560;28;20032;-69
2021/08/31 06:55:24;;;;;;;9.10;6.18;;;17.80;99.90;;;;;;5098190;28;20020;-70
2021/08/31 06:57:50;;;;;;;8.90;6.18;;;17.90;99.90;;;;;;5098203;28;20028;-70
2021/08/31 07:00:16;;;;;;;10.13;5.32;;;17.80;99.90;;;;;;5097662;28;20028;-69
2021/08/31 07:02:42;;;;;;;7.65;4.88;;;17.90;99.90;;;;;;5098152;28;20527;-69
2021/08/31 07:05:08;;;;;;;5.88;4.75;;;17.90;99.90;;;;;;5098083;28;20032;-69
2021/08/31 07:07:34;;;;;;;5.95;4.50;;;17.70;99.90;;;;;;5098103;28;20076;-69
2021/08/31 07:10:00;;;;;;;6.97;4.53;;;17.70;99.90;;;;;;5096428;28;20491;-69
2021/08/31 07:12:26;;;;;;;7.53;5.18;;;17.60;99.90;;;;;;5098156;28;20024;-69
2021/08/31 07:14:53;;;;;;;4.68;3.92;;;17.90;99.90;;;;;;5097509;28;20031;-69
2021/08/31 07:17:19;;;;;;;7.03;4.38;;;17.90;99.90;;;;;;5097950;28;20020;-69
2021/08/31 07:19:45;;;;;;;5.05;4.05;;;17.90;99.90;;;;;;5097666;28;20089;-70
2021/08/31 07:22:11;;;;;;;5.78;3.80;;;18.00;99.90;;;;;;5097725;28;20027;-69
2021/08/31 07:24:37;;;;;;;5.82;3.53;;;18.00;99.90;;;;;;5097579;28;20168;-69
2021/08/31 07:27:03;;;;;;;4.97;3.10;;;18.10;99.90;;;;;;5097696;28;20508;-69
2021/08/31 07:29:29;;;;;;;6.95;3.35;;;18.10;99.90;;;;;;5097275;28;20043;-69
2021/08/31 07:31:55;;;;;;;4.30;3.20;;;18.00;99.90;;;;;;5097727;28;20012;-69
2021/08/31 07:34:21;;;;;;;4.63;3.40;;;18.10;99.90;;;;;;5097448;28;20031;-69
2021/08/31 07:36:47;;;;;;;5.65;3.28;;;18.20;99.90;;;;;;5097587;28;20395;-69
2021/08/31 07:39:13;;;;;;;3.85;3.03;;;18.20;99.90;;;;;;5095926;28;20035;-69
2021/08/31 07:41:39;;;;;;;6.40;3.20;;;18.30;99.90;;;;;;5097482;28;20158;-69
2021/08/31 07:44:05;;;;;;;4.32;3.05;;;18.30;99.90;;;;;;5096815;28;20031;-69
2021/08/31 07:46:31;;;;;;;5.47;3.88;;;18.50;99.90;;;;;;5097057;28;20016;-69
2021/08/31 07:48:58;;;;;;;6.15;4.57;;;18.60;99.90;;;;;;5095956;28;20097;-69
2021/08/31 07:51:24;;;;;;;7.40;3.08;;;18.60;99.90;;;;;;5097442;28;20023;-69
2021/08/31 07:53:50;;;;;;;4.75;3.30;;;18.70;99.90;;;;;;5097009;28;20103;-69
2021/08/31 07:56:17;;;;;;;5.95;3.20;;;18.70;99.90;;;;;;5097283;28;20020;-69
2021/08/31 07:58:43;;;;;;;7.35;3.22;;;18.80;99.90;;;;;;5096794;28;20074;-69
2021/08/31 08:01:08;;;;;;;3.97;3.00;;;19.00;99.90;;;;;;5096664;28;20028;-69
2021/08/31 08:03:34;;;;;;;8.13;3.30;;;19.20;99.90;;;;;;5096979;28;20027;-69
2021/08/31 08:06:01;;;;;;;3.97;3.25;;;19.30;99.90;;;;;;5096958;28;20040;-69
2021/08/31 08:08:27;;;;;;;7.22;2.85;;;19.50;99.90;;;;;;5096920;28;20483;-69
2021/08/31 08:10:53;;;;;;;11.23;3.30;;;;;;;;;;5097252;28;20079;-69
2021/08/31 08:13:19;;;;;;;6.60;3.42;;;19.70;99.90;;;;;;5096718;28;20028;-69
2021/08/31 08:15:45;;;;;;;6.68;3.20;;;19.80;99.90;;;;;;5096730;28;20030;-69
2021/08/31 08:18:11;;;;;;;5.32;2.97;;;19.90;99.90;;;;;;5096779;28;20024;-69
2021/08/31 08:20:41;;;;;;;4.85;3.65;;;;;;;;;;5096898;28;20017;-69
2021/08/31 08:23:07;;;;;;;6.43;3.80;;;20.00;99.90;;;;;;5096823;28;20091;-69
2021/08/31 08:25:33;;;;;;;6.20;3.47;;;20.10;99.90;;;;;;5096979;28;20024;-69
2021/08/31 08:27:59;;;;;;;4.95;2.90;;;20.20;99.90;;;;;;5095238;28;20023;-69
2021/08/31 08:30:25;;;;;;;6.25;3.33;;;20.30;99.90;;;;;;5096802;28;20039;-69
2021/08/31 08:32:51;;;;;;;5.50;3.28;;;20.30;99.90;;;;;;5096460;28;20031;-69
2021/08/31 08:35:17;;;;;;;4.63;3.13;;;20.30;99.90;;;;;;5096876;28;20027;-69
2021/08/31 08:37:43;;;;;;;3.95;3.03;;;20.40;99.90;;;;;;5096523;28;20078;-69
2021/08/31 08:40:10;;;;;;;7.25;3.33;;;20.60;99.90;;;;;;5096488;28;20028;-69
2021/08/31 08:42:40;;;;;;;5.43;2.88;;;20.60;99.90;;;;;;5096565;28;20464;-69
2021/08/31 08:45:08;;;;;;;5.47;2.63;;;21.00;99.90;;;;;;5096323;28;20035;-69
2021/08/31 08:47:34;;;;;;;5.50;2.90;;;;;;;;;;5096318;28;20039;-69
2021/08/31 08:50:01;;;;;;;6.22;2.75;;;;;;;;;;5096559;28;20021;-69
2021/08/31 08:52:27;;;;;;;4.43;2.90;;;21.50;99.90;;;;;;5096520;28;20049;-69
2021/08/31 08:54:54;;;;;;;5.05;2.60;;;;;;;;;;5096596;28;20361;-69
2021/08/31 08:57:21;;;;;;;5.72;2.42;;;;;;;;;;5098896;28;20030;-69
2021/08/31 08:59:50;;;;;;;4.15;2.83;;;21.70;99.90;;;;;;5099978;28;20470;-70
2021/08/31 09:02:37;;;;;;;5.28;2.53;;;21.90;99.90;;;;;;5100240;28;20027;-69
2021/08/31 09:05:08;;;;;;;5.60;2.53;;;22.10;99.90;;;;;;5100349;28;20020;-69
2021/08/31 09:07:41;;;;;;;3.72;2.17;;;22.50;99.90;;;;;;5100572;28;20020;-69
2021/08/31 09:10:12;;;;;;;7.75;2.88;;;22.50;99.90;;;;;;5100095;28;20023;-69
2021/08/31 09:12:40;;;;;;;4.95;3.42;;;22.80;99.90;;;;;;5100225;28;20141;-69
2021/08/31 09:15:26;;;;;;;7.22;3.00;;;22.80;99.90;;;;;;5099777;28;20021;-70
2021/08/31 09:18:14;;;;;;;4.57;2.40;;;22.50;99.90;;;;;;5100271;28;20107;-69
2021/08/31 09:20:54;;;;;;;7.00;2.20;;;22.30;99.90;;;;;;5100161;28;20361;-69
2021/08/31 09:23:23;;;;;;;7.13;2.47;;;22.40;99.90;;;;;;5099801;28;20024;-69
2021/08/31 09:25:52;;;;;;;7.32;2.33;;;22.80;99.90;;;;;;5100101;28;20012;-69
2021/08/31 09:28:32;;;;;;;5.63;3.00;;;22.90;99.90;;;;;;5086522;28;20024;-69
2021/08/31 09:31:02;;;;;;;2.58;1.98;;;23.10;99.90;;;;;;5099510;28;20078;-69
2021/08/31 09:33:30;;;;;;;5.50;2.08;;;;;;;;;;5099706;28;20533;-69
2021/08/31 09:36:10;;;;;;;5.78;2.33;;;24.70;99.90;;;;;;5099893;28;20511;-69
2021/08/31 09:38:46;;;;;;;5.18;2.15;;;25.50;99.90;;;;;;5099728;28;20021;-69
2021/08/31 09:41:40;;;;;;;5.63;2.97;;;26.00;99.90;;;;;;5099400;28;20031;-69
2021/08/31 09:44:19;;;;;;;4.50;2.20;;;25.80;98.10;;;;;;5099509;28;20024;-70
2021/08/31 09:46:48;;;;;;;3.05;1.80;;;26.00;98.30;;;;;;5099689;28;20026;-70
2021/08/31 09:49:29;;;;;;;3.35;2.05;;;26.10;98.20;;;;;;5099482;28;20020;-69
2021/08/31 09:52:05;;;;;;;5.40;2.67;;;26.70;97.70;;;;;;5099691;28;20059;-70
2021/08/31 09:54:34;;;;;;;5.22;2.42;;;27.60;95.00;;;;;;5099576;28;20031;-69
2021/08/31 09:57:00;;;;;;;8.57;2.42;;;28.20;93.50;;;;;;5099345;28;20043;-70
2021/08/31 09:59:26;;;;;;;7.25;4.18;;;28.30;93.70;;;;;;5099101;28;20056;-69
2021/08/31 10:01:53;;;;;;;5.35;3.03;;;29.30;92.90;;;;;;5099472;28;20158;-70
2021/08/31 10:04:20;;;;;;;3.15;2.20;;;29.50;93.00;;;;;;5098013;28;20042;-69
2021/08/31 10:06:48;;;;;;;3.90;2.47;;;;;;;;;;5098806;28;20161;-69
2021/08/31 10:09:15;;;;;;;6.20;2.10;;;27.60;90.90;;;;;;5099264;28;20044;-69
2021/08/31 10:11:41;;;;;;;2.10;1.55;;;26.40;91.50;;;;;;5098943;28;20031;-69
2021/08/31 10:14:09;;;;;;;2.53;1.88;;;25.30;93.00;;;;;;5097542;28;20034;-69
2021/08/31 10:16:36;;;;;;;5.38;3.33;;;25.20;94.40;;;;;;5098972;28;20016;-69
2021/08/31 10:19:02;;;;;;;7.60;3.53;;;25.50;94.70;;;;;;5098965;28;20024;-69
2021/08/31 10:21:28;;;;;;;4.80;2.85;;;26.30;94.10;;;;;;5098811;28;20411;-69
2021/08/31 10:23:54;;;;;;;7.50;2.42;;;26.30;92.90;;;;;;5099149;28;20012;-69
2021/08/31 10:26:32;;;;;;;7.32;2.15;;;25.90;93.00;;;;;;5098705;28;20020;-69
2021/08/31 10:29:13;;;;;;;5.35;2.17;;;26.20;93.50;;;;;;5099053;28;20048;-69
2021/08/31 10:31:41;;;;;;;3.60;2.00;;;27.50;92.90;;;;;;5098669;28;20027;-70
2021/08/31 10:34:40;;;;;;;5.13;2.10;;;27.50;90.70;;;;;;5097249;28;20035;-67
2021/08/31 10:37:16;;;;;;;3.95;2.42;;;26.40;91.20;;;;;;5098791;28;20028;-69
2021/08/31 10:39:53;;;;;;;7.07;2.20;;;25.60;92.50;;;;;;5098676;28;20073;-70
2021/08/31 10:42:39;;;;;;;7.63;2.20;;;26.20;93.40;;;;;;5098608;28;20032;-69
2021/08/31 10:45:25;;;;;;;3.25;1.63;;;26.40;91.90;;;;;;5098058;28;20029;-69
2021/08/31 10:47:51;;;;;;;5.72;2.20;;;26.10;91.80;;;;;;5098287;28;20399;-69
2021/08/31 10:50:24;;;;;;;4.53;2.97;;;25.60;92.10;;;;;;5098399;28;20032;-69
2021/08/31 10:53:02;;;;;;;5.40;2.25;;;25.60;93.70;;;;;;5098387;28;20099;-69
2021/08/31 10:55:28;;;;;;;4.63;2.40;;;26.90;94.30;;;;;;5098097;28;20040;-69
2021/08/31 10:57:58;;;;;;;4.90;2.10;;;29.00;93.20;;;;;;5098312;28;20025;-70
2021/08/31 11:00:28;;;;;;;6.32;2.05;;;30.30;89.60;;;;;;5097838;28;20479;-70
2021/08/31 11:03:00;;;;;;;4.45;2.10;;;29.90;85.70;;;;;;5098284;28;20468;-69
2021/08/31 11:05:29;;;;;;;4.25;2.17;;;28.40;86.30;;;;;;5098192;28;20040;-69
2021/08/31 11:07:59;;;;;;;4.03;1.95;;;28.30;86.90;;;;;;5098284;28;20031;-69
2021/08/31 11:10:27;;;;;;;8.60;2.50;;;27.60;90.00;;;;;;5098031;28;20027;-69
2021/08/31 11:12:54;;;;;;;3.53;2.00;;;28.30;90.00;;;;;;5098236;28;20028;-69
2021/08/31 11:15:24;;;;;;;5.13;2.13;;;29.40;88.70;;;;;;5096304;28;20023;-68
2021/08/31 11:17:51;;;;;;;6.80;1.95;;;30.00;85.30;;;;;;5097831;28;20035;-68
2021/08/31 11:20:24;;;;;;;3.90;1.98;;;30.50;88.10;;;;;;5097024;28;20030;-67
2021/08/31 11:23:11;;;;;;;5.50;2.53;;;32.40;78.30;;;;;;5097626;28;20020;-68
2021/08/31 11:25:39;;;;;;;4.00;2.28;;;33.20;76.30;;;;;;5097644;28;21029;-69
2021/08/31 11:28:12;;;;;;;5.07;1.90;;;33.40;78.10;;;;;;5096109;28;20031;-68
2021/08/31 11:30:53;;;;;;;4.30;1.75;;;33.20;76.30;;;;;;5095915;28;20031;-68
2021/08/31 11:33:21;;;;;;;2.80;1.50;;;30.80;76.50;;;;;;5097342;28;20032;-68
2021/08/31 11:35:50;;;;;;;4.80;2.22;;;30.60;77.70;;;;;;5096085;28;20074;-68
2021/08/31 11:38:26;;;;;;;2.55;1.60;;;30.60;79.50;;;;;;5097400;28;20050;-68
2021/08/31 11:40:52;;;;;;;8.65;1.95;;;29.80;76.50;;;;;;5097827;28;20437;-68
2021/08/31 11:43:18;;;;;;;4.75;1.88;;;29.10;77.80;;;;;;5096058;28;20120;-68
2021/08/31 11:45:43;;;;;;;3.95;2.00;;;29.20;81.20;;;;;;5096943;28;20096;-68
2021/08/31 11:48:09;;;;;;;4.18;1.70;;;29.70;79.40;;;;;;5097316;28;20020;-68
2021/08/31 11:50:37;;;;;;;8.63;3.10;;;30.10;79.10;;;;;;5095810;28;20020;-68
2021/08/31 11:53:17;;;;;;;8.50;1.65;;;29.60;78.20;;;;;;5097434;28;20122;-68
2021/08/31 11:55:43;;;;;;;4.50;2.10;;;29.60;80.90;;;;;;5097097;28;20031;-68
2021/08/31 11:58:09;;;;;;;2.55;1.88;;;30.20;78.90;;;;;;5097074;28;20155;-68
2021/08/31 12:00:43;;;;;;;3.58;1.48;;;30.70;79.60;;;;;;5096619;28;20055;-68
2021/08/31 12:03:38;;;;;;;5.25;1.88;;;31.70;77.50;;;;;;5097092;28;20020;-69
2021/08/31 12:06:10;;;;;;;4.00;1.70;;;32.40;75.30;;;;;;5088002;28;20032;-69
2021/08/31 12:08:45;;;;;;;4.40;1.75;;;32.90;75.00;;;;;;5096857;28;20020;-69
2021/08/31 12:11:13;;;;;;;2.85;1.48;;;33.20;73.10;;;;;;5096967;28;20024;-69
2021/08/31 12:13:43;;;;;;;3.80;1.42;;;33.50;73.50;;;;;;5097074;28;20017;-69
2021/08/31 12:16:11;;;;;;;3.63;1.63;;;33.80;71.40;;;;;;5096837;28;20024;-69
2021/08/31 12:18:38;;;;;;;2.65;1.35;;;33.60;70.60;;;;;;5097147;28;20016;-68
2021/08/31 12:21:32;;;;;;;2.85;1.70;;;32.80;70.50;;;;;;5096695;28;20081;-69
2021/08/31 12:23:58;;;;;;;3.97;2.00;;;32.60;71.50;;;;;;5087933;28;20111;-68
2021/08/31 12:26:34;;;;;;;3.28;1.30;;;32.40;71.80;;;;;;5096723;28;20048;-69
2021/08/31 12:29:02;;;;;;;2.78;1.23;;;32.30;71.80;;;;;;5096702;28;20016;-68
2021/08/31 12:31:29;;;;;;;2.72;1.40;;;31.90;73.70;;;;;;5094944;28;20108;-68
2021/08/31 12:33:54;;;;;;;5.15;1.20;;;31.80;74.70;;;;;;5096972;28;20016;-68
2021/08/31 12:36:31;;;;;;;4.97;2.03;;;31.60;73.10;;;;;;5096531;28;20069;-68
2021/08/31 12:38:58;;;;;;;6.00;1.70;;;;;;;;;;5096588;28;20046;-68
2021/08/31 12:41:26;;;;;;;2.47;1.70;;;30.50;71.80;;;;;;5096796;28;20025;-68
2021/08/31 12:43:58;;;;;;;4.03;1.80;;;29.60;73.30;;;;;;5096702;28;20034;-68